Saga Pearl II — 9HA2950 — position and weather

sailwx.info

Track history (hours):
 
Tides and Currents Weather Stations Pressure Air Temp Water Temp Dewpoint Dewpoint Depression Visibility Wind Speed Wind Dir Waves Ship Positions

Saga Pearl II

Last reported at 2017-Sep-26 13:00 UTC. Time now 2017-Sep-26 20:12 UTC.
Position N 42°06' W 010°30'.

Length 165 m; draft 6.3 m.

Type: Ship. MMSI: 256878000.

Wind from 180 at 18 knots

Barometer 1020.3 mb
Air temperature 19.5 ° C
Visibility: greater than 10.8 NM
Dewpoint 15.5 ° C
Water temperature 21.1 ° C

Date/timePositionNaut miles runAvg speedWind from/ knotsBaromVisibWave heightAir tempDewpointWater temp
2017-Sep-26 13:00N 42°06' W 010°30'19615.1 180 / 181020.310.8 19.515.521.1
2017-Sep-26 00:00N 45°06' W 008°42'2914.7 200 / 51022.910.8 17.713.920.5
2017-Sep-25 22:00N 45°30' W 008°18'13314.8 1023.810.8 17.113.4
2017-Sep-25 13:00N 47°30' W 006°54'6816.5 1023.410.8 18.212.517.7
2017-Sep-25 08:52N 48°30' W 006°06'1415.9
2017-Sep-25 08:00N 48°42' W 005°57'816.2
2017-Sep-25 07:31N 48°49' W 005°50'815.3
2017-Sep-25 07:00N 48°55' W 005°42'714.9
2017-Sep-25 06:30N 48°59' W 005°33'714.7
2017-Sep-25 06:00N 49°03' W 005°24'714.7
2017-Sep-25 05:30N 49°07' W 005°14'714.9
2017-Sep-25 05:00N 49°12' W 005°05'815.3
2017-Sep-25 04:30N 49°16' W 004°55'815.6
2017-Sep-25 04:00N 49°20' W 004°45'816.2
2017-Sep-25 03:30N 49°24' W 004°35'3917.2
2017-Sep-25 01:14N 49°45' W 003°43'417.1
2017-Sep-25 01:00N 49°47' W 003°38'817.0
2017-Sep-25 00:30N 49°51' W 003°27'816.3
2017-Sep-25 00:00N 49°55' W 003°16'815.4
2017-Sep-24 23:30N 49°58' W 003°04'6814.5
2017-Sep-24 18:51N 50°24' W 001°27'617.9
2017-Sep-24 18:30N 50°26' W 001°18'918.5
2017-Sep-24 18:00N 50°31' W 001°06'816.7
2017-Sep-24 17:31N 50°38' W 000°60'5 9.1
2017-Sep-24 17:01N 50°43' W 001°00'815.6
2017-Sep-24 16:31N 50°46' W 001°12'5 9.6
2017-Sep-24 16:01N 50°49' W 001°18'510.4
2017-Sep-24 15:30N 50°53' W 001°23'2 3.4
2017-Sep-24 14:59N 50°54' W 001°25'0 0.0
2017-Sep-24 14:28N 50°54' W 001°25'0 0.0
2017-Sep-24 13:55N 50°54' W 001°25'0 0.0
2017-Sep-24 13:28N 50°54' W 001°25'0 0.0
2017-Sep-24 12:55N 50°54' W 001°25'0 0.0
2017-Sep-24 12:27N 50°54' W 001°25'0 0.0
2017-Sep-24 12:00N 50°54' W 001°25'0 0.0
2017-Sep-24 11:30N 50°54' W 001°25'0 0.0
2017-Sep-24 11:00N 50°54' W 001°25'0 0.0
2017-Sep-24 10:30N 50°54' W 001°25'0 0.0
2017-Sep-24 10:00N 50°54' W 001°25'0 0.0
2017-Sep-24 09:30N 50°54' W 001°25'0 0.0
2017-Sep-24 09:00N 50°54' W 001°25'0 0.0
2017-Sep-24 08:30N 50°54' W 001°25'0 0.0
2017-Sep-24 08:00N 50°54' W 001°25'0 0.0
2017-Sep-24 07:31N 50°54' W 001°25'0 0.0
2017-Sep-24 07:00N 50°54' W 001°25'1 2.0
2017-Sep-24 06:29N 50°53' W 001°24'510.1
2017-Sep-24 06:00N 50°50' W 001°19'4 8.8
2017-Sep-24 05:30N 50°46' W 001°15'816.1
2017-Sep-24 05:00N 50°44' W 001°03'510.7
2017-Sep-24 04:31N 50°39' W 000°59'714.2
2017-Sep-24 04:00N 50°32' W 001°03'611.0
2017-Sep-24 03:30N 50°29' W 001°10'611.9
2017-Sep-24 03:00N 50°26' W 001°18'611.7
2017-Sep-24 02:30N 50°24' W 001°27'611.9
2017-Sep-24 02:00N 50°23' W 001°36'612.7
2017-Sep-24 01:30N 50°21' W 001°45'611.2
2017-Sep-24 01:00N 50°20' W 001°54'510.3
2017-Sep-24 00:30N 50°18' W 002°01'611.0
2017-Sep-24 00:00N 50°17' W 002°10'5443.7
2017-Sep-24 00:00N 50°12' W 002°06'917.7 130 / 171017.710.8 16.614.218.4
2017-Sep-23 23:30N 50°15' W 002°18'611.4
2017-Sep-23 23:00N 50°15' W 002°27'611.5
2017-Sep-23 22:30N 50°15' W 002°36'612.3
2017-Sep-23 22:00N 50°14' W 002°46'816.6
2017-Sep-23 21:30N 50°14' W 002°59'816.1
2017-Sep-23 21:01N 50°12' W 003°11'816.5
2017-Sep-23 20:31N 50°09' W 003°23'816.8
2017-Sep-23 20:01N 50°05' W 003°35'9411.7
2017-Sep-23 12:00N 50°18' W 006°00'18215.2 160 / 281016.210.8 15.312.616.9
2017-Sep-23 00:00N 53°18' W 005°18'118 5.3 200 / 221014.610.8 14.112.116.8
2017-Sep-22 01:59N 55°15' W 005°30'713.8
2017-Sep-22 01:30N 55°14' W 005°41'713.4
2017-Sep-22 01:00N 55°14' W 005°53'713.0
2017-Sep-22 00:30N 55°18' W 006°02'714.5
2017-Sep-22 00:00N 55°22' W 006°12'4426.7
2017-Sep-22 00:00N 55°18' W 006°12'1021.6 180 / 231012.710.8 11.9 8.016.3
2017-Sep-21 23:30N 55°26' W 006°23'815.6
2017-Sep-21 23:00N 55°32' W 006°32'816.9
2017-Sep-21 22:30N 55°38' W 006°42'816.5
2017-Sep-21 22:00N 55°46' W 006°49'917.4
2017-Sep-21 21:30N 55°54' W 006°50'71 4.3
2017-Sep-21 05:01N 57°01' W 006°08'011.0
2017-Sep-21 04:59N 57°01' W 006°08'510.5
2017-Sep-21 04:29N 57°04' W 006°16'33 7.4
2017-Sep-21 00:00N 57°36' W 006°36'20 0.9 360 / 71009.510.8 11.4 8.615.3
2017-Sep-20 00:00N 57°18' W 006°54'22 4.0 160 / 301010.2 5.4 14.511.715.8
2017-Sep-19 18:25N 57°05' W 006°21'6 9.2
2017-Sep-19 17:49N 57°01' W 006°13'1 3.1
2017-Sep-19 17:28N 57°01' W 006°15'0 0.0
2017-Sep-19 11:04N 57°01' W 006°15'0 0.0
2017-Sep-19 10:52N 57°01' W 006°15'0 0.1
2017-Sep-19 10:28N 57°01' W 006°15'6810.8
2017-Sep-19 04:08N 55°54' W 006°44'314.3
2017-Sep-19 03:54N 55°51' W 006°42'616.3
2017-Sep-19 03:30N 55°45' W 006°40'816.4
2017-Sep-19 03:00N 55°37' W 006°36'917.9
2017-Sep-19 02:30N 55°31' W 006°25'918.0
2017-Sep-19 02:00N 55°26' W 006°12'4541.4
2017-Sep-19 02:00N 55°24' W 006°06'510.1 240 / 121019.710.8 12.5 9.416.2
2017-Sep-19 01:30N 55°21' W 005°59'1020.2
2017-Sep-19 01:00N 55°13' W 005°49'918.5
2017-Sep-19 00:30N 55°05' W 005°40'917.5
2017-Sep-19 00:00N 54°58' W 005°32'917.2
2017-Sep-18 23:30N 54°50' W 005°25'816.6
2017-Sep-18 23:00N 54°43' W 005°18'815.7
2017-Sep-18 22:31N 54°36' W 005°14'816.0
2017-Sep-18 22:01N 54°28' W 005°14'815.5
2017-Sep-18 21:31N 54°20' W 005°13'815.1
2017-Sep-18 21:00N 54°14' W 005°21'815.5
2017-Sep-18 20:30N 54°08' W 005°30'815.5
2017-Sep-18 20:00N 54°04' W 005°42'915.5
2017-Sep-18 19:25N 54°01' W 005°56'3 0.3
2017-Sep-18 06:28N 54°00' W 006°02'510.3
2017-Sep-18 06:00N 54°01' W 005°53'714.2
2017-Sep-18 05:30N 54°04' W 005°43'611.7
2017-Sep-18 05:00N 54°06' W 005°33'813.5
2017-Sep-18 04:24N 54°04' W 005°19'614.9
2017-Sep-18 04:00N 54°10' W 005°16'815.0
2017-Sep-18 03:30N 54°17' W 005°13'815.4
2017-Sep-18 03:00N 54°25' W 005°14'815.4
2017-Sep-18 02:30N 54°33' W 005°14'714.0
2017-Sep-18 02:00N 54°39' W 005°17'713.7
2017-Sep-18 01:30N 54°46' W 005°21'714.0
2017-Sep-18 01:01N 54°52' W 005°25'1013.4
2017-Sep-18 00:15N 55°00' W 005°36'313.6
2017-Sep-18 00:00N 55°03' W 005°40'4252.9
2017-Sep-18 00:00N 55°00' W 005°36'1021.3 340 / 101019.910.8 13.0 9.316.2
2017-Sep-17 23:31N 55°08' W 005°48'713.1
2017-Sep-17 23:00N 55°13' W 005°56'713.5
2017-Sep-17 22:30N 55°18' W 006°02'713.9
2017-Sep-17 22:00N 55°25' W 006°05'815.5
2017-Sep-17 21:30N 55°32' W 006°01'815.7
2017-Sep-17 21:00N 55°40' W 005°56'3715.1
2017-Sep-17 18:32N 56°16' W 005°42'016.6
2017-Sep-17 18:30N 56°17' W 005°42'816.2
2017-Sep-17 18:00N 56°24' W 005°38'81 4.5
2017-Sep-17 00:00N 56°54' W 007°54'   070 / 171018.110.8 12.3 9.115.5
Track history (hours):
 
Tides and Currents Weather Stations Pressure Air Temp Water Temp Dewpoint Dewpoint Depression Visibility Wind Speed Wind Dir Waves Ship Positions

Saga Pearl II

Last reported at 2017-Sep-26 13:00 UTC. Time now 2017-Sep-26 20:12 UTC.
Position N 42°06' W 010°30'.

Length 165 m; draft 6.3 m.

Type: Ship. MMSI: 256878000.

Wind from 180 at 18 knots

Barometer 1020.3 mb
Air temperature 19.5 ° C
Visibility: greater than 10.8 NM
Dewpoint 15.5 ° C
Water temperature 21.1 ° C

Date/timePositionNaut miles runAvg speedWind from/ knotsBaromVisibWave heightAir tempDewpointWater temp
2017-Sep-26 13:00N 42°06' W 010°30'19615.1 180 / 181020.310.8 19.515.521.1
2017-Sep-26 00:00N 45°06' W 008°42'2914.7 200 / 51022.910.8 17.713.920.5
2017-Sep-25 22:00N 45°30' W 008°18'13314.8 1023.810.8 17.113.4
2017-Sep-25 13:00N 47°30' W 006°54'6816.5 1023.410.8 18.212.517.7
2017-Sep-25 08:52N 48°30' W 006°06'1415.9
2017-Sep-25 08:00N 48°42' W 005°57'816.2
2017-Sep-25 07:31N 48°49' W 005°50'815.3
2017-Sep-25 07:00N 48°55' W 005°42'714.9
2017-Sep-25 06:30N 48°59' W 005°33'714.7
2017-Sep-25 06:00N 49°03' W 005°24'714.7
2017-Sep-25 05:30N 49°07' W 005°14'714.9
2017-Sep-25 05:00N 49°12' W 005°05'815.3
2017-Sep-25 04:30N 49°16' W 004°55'815.6
2017-Sep-25 04:00N 49°20' W 004°45'816.2
2017-Sep-25 03:30N 49°24' W 004°35'3917.2
2017-Sep-25 01:14N 49°45' W 003°43'417.1
2017-Sep-25 01:00N 49°47' W 003°38'817.0
2017-Sep-25 00:30N 49°51' W 003°27'816.3
2017-Sep-25 00:00N 49°55' W 003°16'815.4
2017-Sep-24 23:30N 49°58' W 003°04'6814.5
2017-Sep-24 18:51N 50°24' W 001°27'617.9
2017-Sep-24 18:30N 50°26' W 001°18'918.5
2017-Sep-24 18:00N 50°31' W 001°06'816.7
2017-Sep-24 17:31N 50°38' W 000°60'5 9.1
2017-Sep-24 17:01N 50°43' W 001°00'815.6
2017-Sep-24 16:31N 50°46' W 001°12'5 9.6
2017-Sep-24 16:01N 50°49' W 001°18'510.4
2017-Sep-24 15:30N 50°53' W 001°23'2 3.4
2017-Sep-24 14:59N 50°54' W 001°25'0 0.0
2017-Sep-24 14:28N 50°54' W 001°25'0 0.0
2017-Sep-24 13:55N 50°54' W 001°25'0 0.0
2017-Sep-24 13:28N 50°54' W 001°25'0 0.0
2017-Sep-24 12:55N 50°54' W 001°25'0 0.0
2017-Sep-24 12:27N 50°54' W 001°25'0 0.0
2017-Sep-24 12:00N 50°54' W 001°25'0 0.0
2017-Sep-24 11:30N 50°54' W 001°25'0 0.0
2017-Sep-24 11:00N 50°54' W 001°25'0 0.0
2017-Sep-24 10:30N 50°54' W 001°25'0 0.0
2017-Sep-24 10:00N 50°54' W 001°25'0 0.0
2017-Sep-24 09:30N 50°54' W 001°25'0 0.0
2017-Sep-24 09:00N 50°54' W 001°25'0 0.0
2017-Sep-24 08:30N 50°54' W 001°25'0 0.0
2017-Sep-24 08:00N 50°54' W 001°25'0 0.0
2017-Sep-24 07:31N 50°54' W 001°25'0 0.0
2017-Sep-24 07:00N 50°54' W 001°25'1 2.0
2017-Sep-24 06:29N 50°53' W 001°24'510.1
2017-Sep-24 06:00N 50°50' W 001°19'4 8.8
2017-Sep-24 05:30N 50°46' W 001°15'816.1
2017-Sep-24 05:00N 50°44' W 001°03'510.7
2017-Sep-24 04:31N 50°39' W 000°59'714.2
2017-Sep-24 04:00N 50°32' W 001°03'611.0
2017-Sep-24 03:30N 50°29' W 001°10'611.9
2017-Sep-24 03:00N 50°26' W 001°18'611.7
2017-Sep-24 02:30N 50°24' W 001°27'611.9
2017-Sep-24 02:00N 50°23' W 001°36'612.7
2017-Sep-24 01:30N 50°21' W 001°45'611.2
2017-Sep-24 01:00N 50°20' W 001°54'510.3
2017-Sep-24 00:30N 50°18' W 002°01'611.0
2017-Sep-24 00:00N 50°17' W 002°10'5443.7
2017-Sep-24 00:00N 50°12' W 002°06'917.7 130 / 171017.710.8 16.614.218.4
2017-Sep-23 23:30N 50°15' W 002°18'611.4
2017-Sep-23 23:00N 50°15' W 002°27'611.5
2017-Sep-23 22:30N 50°15' W 002°36'612.3
2017-Sep-23 22:00N 50°14' W 002°46'816.6
2017-Sep-23 21:30N 50°14' W 002°59'816.1
2017-Sep-23 21:01N 50°12' W 003°11'816.5
2017-Sep-23 20:31N 50°09' W 003°23'816.8
2017-Sep-23 20:01N 50°05' W 003°35'9411.7
2017-Sep-23 12:00N 50°18' W 006°00'18215.2 160 / 281016.210.8 15.312.616.9
2017-Sep-23 00:00N 53°18' W 005°18'118 5.3 200 / 221014.610.8 14.112.116.8
2017-Sep-22 01:59N 55°15' W 005°30'713.8
2017-Sep-22 01:30N 55°14' W 005°41'713.4
2017-Sep-22 01:00N 55°14' W 005°53'713.0
2017-Sep-22 00:30N 55°18' W 006°02'714.5
2017-Sep-22 00:00N 55°22' W 006°12'4426.7
2017-Sep-22 00:00N 55°18' W 006°12'1021.6 180 / 231012.710.8 11.9 8.016.3
2017-Sep-21 23:30N 55°26' W 006°23'815.6
2017-Sep-21 23:00N 55°32' W 006°32'816.9
2017-Sep-21 22:30N 55°38' W 006°42'816.5
2017-Sep-21 22:00N 55°46' W 006°49'917.4
2017-Sep-21 21:30N 55°54' W 006°50'71 4.3
2017-Sep-21 05:01N 57°01' W 006°08'011.0
2017-Sep-21 04:59N 57°01' W 006°08'510.5
2017-Sep-21 04:29N 57°04' W 006°16'33 7.4
2017-Sep-21 00:00N 57°36' W 006°36'20 0.9 360 / 71009.510.8 11.4 8.615.3
2017-Sep-20 00:00N 57°18' W 006°54'22 4.0 160 / 301010.2 5.4 14.511.715.8
2017-Sep-19 18:25N 57°05' W 006°21'6 9.2
2017-Sep-19 17:49N 57°01' W 006°13'1 3.1
2017-Sep-19 17:28N 57°01' W 006°15'0 0.0
2017-Sep-19 11:04N 57°01' W 006°15'0 0.0
2017-Sep-19 10:52N 57°01' W 006°15'0 0.1
2017-Sep-19 10:28N 57°01' W 006°15'6810.8
2017-Sep-19 04:08N 55°54' W 006°44'314.3
2017-Sep-19 03:54N 55°51' W 006°42'616.3
2017-Sep-19 03:30N 55°45' W 006°40'816.4
2017-Sep-19 03:00N 55°37' W 006°36'917.9
2017-Sep-19 02:30N 55°31' W 006°25'918.0
2017-Sep-19 02:00N 55°26' W 006°12'4541.4
2017-Sep-19 02:00N 55°24' W 006°06'510.1 240 / 121019.710.8 12.5 9.416.2
2017-Sep-19 01:30N 55°21' W 005°59'1020.2
2017-Sep-19 01:00N 55°13' W 005°49'918.5
2017-Sep-19 00:30N 55°05' W 005°40'917.5
2017-Sep-19 00:00N 54°58' W 005°32'917.2
2017-Sep-18 23:30N 54°50' W 005°25'816.6
2017-Sep-18 23:00N 54°43' W 005°18'815.7
2017-Sep-18 22:31N 54°36' W 005°14'816.0
2017-Sep-18 22:01N 54°28' W 005°14'815.5
2017-Sep-18 21:31N 54°20' W 005°13'815.1
2017-Sep-18 21:00N 54°14' W 005°21'815.5
2017-Sep-18 20:30N 54°08' W 005°30'815.5
2017-Sep-18 20:00N 54°04' W 005°42'915.5
2017-Sep-18 19:25N 54°01' W 005°56'3 0.3
2017-Sep-18 06:28N 54°00' W 006°02'510.3
2017-Sep-18 06:00N 54°01' W 005°53'714.2
2017-Sep-18 05:30N 54°04' W 005°43'611.7
2017-Sep-18 05:00N 54°06' W 005°33'813.5
2017-Sep-18 04:24N 54°04' W 005°19'614.9
2017-Sep-18 04:00N 54°10' W 005°16'815.0
2017-Sep-18 03:30N 54°17' W 005°13'815.4
2017-Sep-18 03:00N 54°25' W 005°14'815.4
2017-Sep-18 02:30N 54°33' W 005°14'714.0
2017-Sep-18 02:00N 54°39' W 005°17'713.7
2017-Sep-18 01:30N 54°46' W 005°21'714.0
2017-Sep-18 01:01N 54°52' W 005°25'1013.4
2017-Sep-18 00:15N 55°00' W 005°36'313.6
2017-Sep-18 00:00N 55°03' W 005°40'4252.9
2017-Sep-18 00:00N 55°00' W 005°36'1021.3 340 / 101019.910.8 13.0 9.316.2
2017-Sep-17 23:31N 55°08' W 005°48'713.1
2017-Sep-17 23:00N 55°13' W 005°56'713.5
2017-Sep-17 22:30N 55°18' W 006°02'713.9
2017-Sep-17 22:00N 55°25' W 006°05'815.5
2017-Sep-17 21:30N 55°32' W 006°01'815.7
2017-Sep-17 21:00N 55°40' W 005°56'3715.1
2017-Sep-17 18:32N 56°16' W 005°42'016.6
2017-Sep-17 18:30N 56°17' W 005°42'816.2
2017-Sep-17 18:00N 56°24' W 005°38'81 4.5
2017-Sep-17 00:00N 56°54' W 007°54'   070 / 171018.110.8 12.3 9.115.5

Dump ship's entire track history